Time;durP1;ratioP1;P1;durP2;ratioP2;P2;SDS_P1;SDS_P2;PMS_P1;PMS_P2;Temp;Humidity;BMP_temperature;BMP_pressure;BME280_temperature;BME280_humidity;BME280_pressure;Samples;Min_cycle;Max_cycle;Signal;HPM_P1;HPM_P2
2022/11/24 00:01:06;;;;;;;46.50;43.40;;;;;;;5.24;100.00;100253.22;5012333;28;20436;-42
2022/11/24 00:03:34;;;;;;;48.23;44.93;;;;;;;5.23;100.00;100242.78;5012088;28;20469;-41
2022/11/24 00:06:06;;;;;;;46.17;43.13;;;;;;;5.23;100.00;100251.56;5012784;28;20429;-43
2022/11/24 00:08:34;;;;;;;47.83;44.57;;;;;;;5.23;100.00;100256.00;5012555;28;20456;-43
2022/11/24 00:11:06;;;;;;;45.40;42.23;;;;;;;5.23;100.00;100250.72;5012373;28;20520;-43
2022/11/24 00:13:34;;;;;;;45.87;42.77;;;;;;;5.21;100.00;100250.09;5011925;28;20523;-43
2022/11/24 00:16:09;;;;;;;44.87;41.30;;;;;;;5.21;100.00;100242.16;5012289;28;20473;-43
2022/11/24 00:18:38;;;;;;;43.77;40.90;;;;;;;5.21;100.00;100252.72;5012560;28;20857;-45
2022/11/24 00:21:06;;;;;;;44.63;41.73;;;;;;;5.20;100.00;100254.53;5012254;28;20452;-45
2022/11/24 00:23:34;;;;;;;42.67;40.10;;;;;;;5.20;100.00;100249.25;5011801;28;20464;-44
2022/11/24 00:26:06;;;;;;;43.17;40.23;;;;;;;5.19;100.00;100252.91;5012337;28;20768;-42
2022/11/24 00:28:35;;;;;;;42.73;40.00;;;;;;;5.21;100.00;100258.03;5012132;28;20503;-42
2022/11/24 00:31:04;;;;;;;43.53;40.93;;;;;;;5.21;100.00;100258.03;5012175;28;20455;-43
2022/11/24 00:33:33;;;;;;;45.43;42.43;;;;;;;5.21;100.00;100250.09;5011078;28;20457;-42
2022/11/24 00:36:01;;;;;;;44.40;41.40;;;;;;;5.20;100.00;100251.06;5012030;28;20473;-44
2022/11/24 00:38:28;;;;;;;44.47;41.37;;;;;;;5.19;100.00;100257.38;5012022;28;20460;-44
2022/11/24 00:40:56;;;;;;;46.83;43.30;;;;;;;5.20;100.00;100259.00;5011751;28;20440;-43
2022/11/24 00:43:24;;;;;;;45.03;42.10;;;;;;;5.17;100.00;100260.19;5011590;28;20472;-44
2022/11/24 00:45:51;;;;;;;45.73;42.43;;;;;;;5.17;100.00;100262.81;5012114;28;20429;-43
2022/11/24 00:48:19;;;;;;;44.87;41.90;;;;;;;5.16;100.00;100261.19;5011771;28;20465;-44
2022/11/24 00:50:57;;;;;;;45.93;42.03;;;;;;;5.17;100.00;100262.81;5011676;28;20437;-42
2022/11/24 00:53:25;;;;;;;43.37;40.77;;;;;;;5.18;100.00;100266.28;5001397;28;20520;-43
2022/11/24 00:55:53;;;;;;;44.57;41.77;;;;;;;5.17;100.00;100268.09;5011882;28;20477;-43
2022/11/24 00:58:21;;;;;;;44.80;41.70;;;;;;;5.18;100.00;100269.75;5011971;28;20457;-43
2022/11/24 01:00:49;;;;;;;43.07;40.23;;;;;;;5.19;100.00;100286.47;5011742;28;20437;-43
2022/11/24 01:03:17;;;;;;;43.10;40.40;;;;;;;5.19;100.00;100275.88;5011494;28;20460;-44
2022/11/24 01:05:44;;;;;;;43.83;40.67;;;;;;;5.20;100.00;100274.88;5011870;28;20433;-46
2022/11/24 01:08:14;;;;;;;44.13;40.97;;;;;;;5.19;100.00;100276.72;5011622;28;20543;-44
2022/11/24 01:10:42;;;;;;;44.80;41.67;;;;;;;5.21;100.00;100281.81;5011928;28;21187;-44
2022/11/24 01:13:10;;;;;;;44.63;41.50;;;;;;;5.21;100.00;100277.34;5011158;28;20519;-42
2022/11/24 01:15:39;;;;;;;43.00;40.30;;;;;;;5.20;100.00;100280.97;5011595;28;21012;-44
2022/11/24 01:18:07;;;;;;;43.97;41.07;;;;;;;5.18;100.00;100285.63;5011712;28;20519;-43
2022/11/24 01:20:36;;;;;;;43.87;41.03;;;;;;;5.17;100.00;100283.16;5011519;28;20440;-43
2022/11/24 01:23:04;;;;;;;44.07;41.00;;;;;;;5.18;100.00;100285.63;5011196;28;20531;-42
2022/11/24 01:25:33;;;;;;;44.67;41.63;;;;;;;5.18;100.00;100282.97;5011794;28;20481;-44
2022/11/24 01:28:00;;;;;;;44.03;41.00;;;;;;;5.19;100.00;100284.63;5011682;28;20474;-43
2022/11/24 01:30:28;;;;;;;42.50;39.60;;;;;;;5.18;100.00;100293.56;5011625;28;20441;-42
2022/11/24 01:32:56;;;;;;;44.00;41.17;;;;;;;5.18;100.00;100290.09;5010896;28;20461;-42
2022/11/24 01:35:23;;;;;;;43.67;40.83;;;;;;;5.20;100.00;100296.00;5011536;28;20436;-42
2022/11/24 01:37:51;;;;;;;44.50;41.17;;;;;;;5.19;100.00;100300.50;5011665;28;20457;-42
2022/11/24 01:40:18;;;;;;;43.90;40.87;;;;;;;5.20;100.00;100293.38;5011716;28;20432;-43
2022/11/24 01:42:50;;;;;;;44.20;41.30;;;;;;;5.20;100.00;100294.19;5010870;28;20460;-43
2022/11/24 01:45:33;;;;;;;43.53;40.30;;;;;;;5.23;100.00;100293.03;5009160;28;20927;-44
2022/11/24 01:48:04;;;;;;;42.83;40.07;;;;;;;5.21;100.00;100295.03;4996531;28;20473;-44
2022/11/24 01:50:34;;;;;;;43.07;40.27;;;;;;;5.22;100.00;100291.41;4998019;28;20500;-43
2022/11/24 01:53:02;;;;;;;43.57;40.23;;;;;;;5.24;100.00;100299.97;4997345;28;20515;-44
2022/11/24 01:55:34;;;;;;;43.40;40.60;;;;;;;5.26;100.00;100305.91;5003430;28;20507;-43
2022/11/24 01:58:07;;;;;;;42.20;39.73;;;;;;;5.27;100.00;100312.84;5014650;28;20453;-43
2022/11/24 02:00:38;;;;;;;44.70;41.60;;;;;;;5.29;100.00;100321.41;5015069;28;20433;-43
2022/11/24 02:03:06;;;;;;;43.90;40.80;;;;;;;5.29;100.00;100324.06;5014287;28;20500;-44
2022/11/24 02:05:38;;;;;;;44.93;41.87;;;;;;;5.31;100.00;100328.19;5014902;28;20441;-44
2022/11/24 02:08:15;;;;;;;45.77;42.47;;;;;;;5.33;100.00;100322.72;5014698;28;20463;-43
2022/11/24 02:10:44;;;;;;;44.83;41.53;;;;;;;5.34;100.00;100327.84;5014457;28;20925;-43
2022/11/24 02:13:14;;;;;;;43.60;40.70;;;;;;;5.35;100.00;100329.47;5014149;28;20461;-42
2022/11/24 02:15:42;;;;;;;45.40;41.73;;;;;;;5.36;100.00;100335.59;5014707;28;20437;-45
2022/11/24 02:18:10;;;;;;;44.37;40.87;;;;;;;5.36;100.00;100341.72;5014562;28;20611;-44
2022/11/24 02:20:38;;;;;;;45.37;41.50;;;;;;;5.37;100.00;100331.97;5014413;28;20495;-43
2022/11/24 02:23:15;;;;;;;44.63;41.37;;;;;;;5.38;100.00;100333.59;5013667;28;20495;-44
2022/11/24 02:25:51;;;;;;;44.70;41.03;;;;;;;5.39;100.00;100345.84;5014374;28;20980;-43
2022/11/24 02:28:22;;;;;;;44.93;41.80;;;;;;;5.41;100.00;100349.13;5014513;28;20456;-43
2022/11/24 02:30:50;;;;;;;43.70;40.60;;;;;;;5.41;100.00;100349.13;5014102;28;21089;-43
2022/11/24 02:33:20;;;;;;;45.23;41.63;;;;;;;5.42;100.00;100348.97;5013839;28;20461;-43
2022/11/24 02:35:48;;;;;;;42.10;39.20;;;;;;;5.43;100.00;100347.16;5014188;28;20810;-44
2022/11/24 02:38:15;;;;;;;43.07;39.50;;;;;;;5.42;100.00;100354.25;5014191;28;20472;-43
2022/11/24 02:40:46;;;;;;;43.90;40.80;;;;;;;5.42;100.00;100356.91;5014176;28;21154;-44
2022/11/24 02:43:17;;;;;;;45.03;41.90;;;;;;;5.45;100.00;100359.19;5013564;28;20455;-42
2022/11/24 02:45:46;;;;;;;43.77;40.97;;;;;;;5.44;100.00;100354.88;5014131;28;20428;-43
2022/11/24 02:48:15;;;;;;;44.93;41.77;;;;;;;5.46;100.00;100360.03;5013804;28;20464;-43
2022/11/24 02:50:42;;;;;;;46.43;42.73;;;;;;;5.47;100.00;100356.34;5013974;28;20433;-44
2022/11/24 02:53:10;;;;;;;44.33;41.37;;;;;;;5.50;100.00;100358.66;5004963;28;20508;-43
2022/11/24 02:55:37;;;;;;;45.00;41.90;;;;;;;5.50;100.00;100356.00;4996677;28;20433;-43
2022/11/24 02:58:05;;;;;;;46.27;42.87;;;;;;;5.52;100.00;100354.03;4996292;28;20481;-43
2022/11/24 03:00:33;;;;;;;47.20;43.60;;;;;;;5.51;100.00;100358.50;4996661;28;20426;-44
2022/11/24 03:03:02;;;;;;;46.03;42.80;;;;;;;5.53;100.00;100359.16;4996783;28;21032;-45
2022/11/24 03:05:29;;;;;;;46.20;43.03;;;;;;;5.55;100.00;100369.56;4996812;28;20434;-44
2022/11/24 03:07:57;;;;;;;45.87;42.50;;;;;;;5.56;100.00;100365.91;5000382;28;20452;-43
2022/11/24 03:10:24;;;;;;;46.23;42.63;;;;;;;5.55;100.00;100361.63;4990858;28;20434;-45
2022/11/24 03:12:52;;;;;;;46.17;42.80;;;;;;;5.55;100.00;100370.38;4992118;28;20473;-43
2022/11/24 03:15:19;;;;;;;46.77;42.43;;;;;;;5.55;100.00;100369.56;5000165;28;20461;-44
2022/11/24 03:17:47;;;;;;;46.97;43.30;;;;;;;5.55;100.00;100369.56;5005092;28;21036;-43
2022/11/24 03:20:17;;;;;;;45.23;41.80;;;;;;;5.57;100.00;100375.50;5013345;28;21012;-43
2022/11/24 03:22:45;;;;;;;45.70;42.07;;;;;;;5.59;100.00;100373.50;5012584;28;20515;-43
2022/11/24 03:25:12;;;;;;;45.83;42.13;;;;;;;5.57;100.00;100372.84;5013372;28;20433;-43
2022/11/24 03:27:40;;;;;;;47.47;43.80;;;;;;;5.57;100.00;100372.84;5012943;28;20507;-43
2022/11/24 03:30:08;;;;;;;45.57;42.27;;;;;;;5.59;100.00;100376.97;5013487;28;21009;-44
2022/11/24 03:32:36;;;;;;;47.13;43.27;;;;;;;5.62;100.00;100378.44;5012716;28;20499;-45
2022/11/24 03:35:04;;;;;;;47.47;44.07;;;;;;;5.61;100.00;100374.16;5013182;28;20437;-45
2022/11/24 03:37:33;;;;;;;49.50;45.27;;;;;;;5.62;100.00;100373.16;5012980;28;20890;-43
2022/11/24 03:40:01;;;;;;;48.27;44.97;;;;;;;5.62;100.00;100381.09;5013099;28;20479;-43
2022/11/24 03:42:29;;;;;;;47.57;44.13;;;;;;;5.64;100.00;100371.16;5012361;28;20527;-43
2022/11/24 03:44:56;;;;;;;48.97;45.10;;;;;;;5.66;100.00;100373.63;5013160;28;20433;-43
2022/11/24 03:47:24;;;;;;;48.57;44.93;;;;;;;5.68;100.00;100376.91;5012912;28;20465;-43
2022/11/24 03:49:51;;;;;;;50.03;46.43;;;;;;;5.69;100.00;100389.97;5012979;28;20437;-43
2022/11/24 03:52:19;;;;;;;48.50;44.73;;;;;;;5.71;100.00;100384.50;4996673;28;20516;-43
2022/11/24 03:54:48;;;;;;;47.20;43.57;;;;;;;5.71;100.00;100393.28;5001858;28;20595;-43
2022/11/24 03:57:15;;;;;;;48.70;44.53;;;;;;;5.74;100.00;100389.44;5007420;28;20481;-43
2022/11/24 03:59:43;;;;;;;47.20;43.73;;;;;;;5.75;100.00;100383.16;5012884;28;20433;-45
2022/11/24 04:02:11;;;;;;;48.50;44.43;;;;;;;5.77;100.00;100386.47;5012092;28;20464;-47
2022/11/24 04:04:38;;;;;;;49.40;45.53;;;;;;;5.78;100.00;100393.41;5012656;28;20433;-43
2022/11/24 04:07:06;;;;;;;49.07;45.00;;;;;;;5.79;100.00;100395.06;5011647;28;20503;-43
2022/11/24 04:09:33;;;;;;;48.50;44.57;;;;;;;5.79;100.00;100390.59;5012855;28;20499;-44
2022/11/24 04:14:47;;;;;;;47.23;43.70;;;;;;;5.80;100.00;100408.09;5012547;28;20937;-44
2022/11/24 04:17:15;;;;;;;48.23;44.47;;;;;;;5.81;100.00;100414.22;5012239;28;20574;-46
2022/11/24 04:19:43;;;;;;;50.80;46.20;;;;;;;5.80;100.00;100416.03;5012202;28;20494;-44
2022/11/24 04:22:10;;;;;;;50.63;45.77;;;;;;;5.84;100.00;100419.16;5011908;28;20882;-43
2022/11/24 04:24:38;;;;;;;52.13;47.90;;;;;;;5.85;100.00;100415.53;5012665;28;20429;-43
2022/11/24 04:27:07;;;;;;;50.93;46.80;;;;;;;5.85;100.00;100421.69;5012488;28;20903;-44
2022/11/24 04:29:34;;;;;;;55.57;50.67;;;;;;;5.87;100.00;100419.69;5012470;28;20503;-44
2022/11/24 04:32:02;;;;;;;51.50;47.47;;;;;;;5.89;100.00;100427.44;5011419;28;20468;-44
2022/11/24 04:34:30;;;;;;;51.90;48.03;;;;;;;5.89;100.00;100428.25;5012026;28;20441;-44
2022/11/24 04:36:58;;;;;;;48.73;44.83;;;;;;;5.90;100.00;100423.81;5012145;28;20457;-47
2022/11/24 04:39:26;;;;;;;49.20;45.30;;;;;;;5.91;100.00;100434.19;5012204;28;20496;-44
2022/11/24 04:41:55;;;;;;;49.43;45.37;;;;;;;5.93;100.00;100450.75;5011355;28;20953;-43
2022/11/24 04:44:24;;;;;;;49.67;45.60;;;;;;;5.91;100.00;100438.69;5011501;28;20433;-44
2022/11/24 04:46:51;;;;;;;49.97;45.77;;;;;;;5.92;100.00;100438.50;5011713;28;20484;-43
2022/11/24 04:49:19;;;;;;;49.90;46.20;;;;;;;5.94;100.00;100441.00;5012287;28;20437;-47
2022/11/24 04:51:47;;;;;;;47.33;43.83;;;;;;;5.94;100.00;100447.09;5009014;28;20449;-45
2022/11/24 04:54:16;;;;;;;49.17;45.10;;;;;;;5.94;100.00;100455.03;5003741;28;20429;-43
2022/11/24 04:56:44;;;;;;;49.53;45.17;;;;;;;5.95;100.00;100447.91;5011878;28;20429;-46
2022/11/24 04:59:13;;;;;;;49.97;45.87;;;;;;;5.96;100.00;100452.22;5012280;28;20588;-44
2022/11/24 05:01:42;;;;;;;48.17;44.50;;;;;;;5.96;100.00;100455.69;5011374;28;20437;-43
2022/11/24 05:04:10;;;;;;;49.00;45.10;;;;;;;5.96;100.00;100463.63;5012079;28;20557;-44
2022/11/24 05:06:38;;;;;;;49.23;45.40;;;;;;;5.96;100.00;100470.75;5011921;28;20440;-44
2022/11/24 05:09:07;;;;;;;57.60;52.47;;;;;;;5.95;100.00;100466.44;5011857;28;20500;-44
2022/11/24 05:11:34;;;;;;;53.60;48.93;;;;;;;5.96;100.00;100482.16;5011710;28;20834;-43
2022/11/24 05:14:02;;;;;;;56.20;50.77;;;;;;;5.97;100.00;100480.34;5011268;28;21117;-44
2022/11/24 05:16:30;;;;;;;58.00;52.30;;;;;;;5.96;100.00;100482.16;5011935;28;20503;-43
2022/11/24 05:18:59;;;;;;;58.53;52.77;;;;;;;5.98;100.00;100482.81;5013304;28;20527;-43
2022/11/24 05:21:27;;;;;;;54.93;50.10;;;;;;;5.97;100.00;100483.00;5015623;28;20488;-43
2022/11/24 05:23:55;;;;;;;54.67;49.60;;;;;;;5.99;100.00;100484.47;5015058;28;20468;-43
2022/11/24 05:26:23;;;;;;;52.90;47.73;;;;;;;6.00;100.00;100485.28;5016073;28;20440;-43
2022/11/24 05:28:50;;;;;;;51.30;47.30;;;;;;;6.00;100.00;100487.94;5015616;28;20500;-45
2022/11/24 05:31:18;;;;;;;53.47;48.07;;;;;;;6.00;100.00;100495.88;5015416;28;20441;-44
2022/11/24 05:33:46;;;;;;;52.93;48.67;;;;;;;6.01;100.00;100498.34;5015011;28;20514;-45
2022/11/24 05:38:57;;;;;;;51.90;47.70;;;;;;;6.01;100.00;100495.69;5014203;28;20504;-43
2022/11/24 05:41:24;;;;;;;51.10;47.10;;;;;;;6.03;100.00;100500.84;5015266;28;20444;-44
2022/11/24 05:43:52;;;;;;;51.90;47.53;;;;;;;6.04;100.00;100505.94;5014705;28;20543;-44
2022/11/24 05:46:19;;;;;;;52.87;48.40;;;;;;;6.05;100.00;100502.31;5015228;28;20437;-45
2022/11/24 05:48:47;;;;;;;52.30;47.93;;;;;;;6.07;100.00;100507.41;5014982;28;20857;-44
2022/11/24 05:51:16;;;;;;;52.87;48.10;;;;;;;6.06;100.00;100503.94;5014382;28;20437;-43
2022/11/24 05:53:44;;;;;;;52.60;48.50;;;;;;;6.07;100.00;100505.59;5004923;28;20462;-42
2022/11/24 05:56:12;;;;;;;55.17;50.13;;;;;;;6.10;100.00;100512.34;5015082;28;20432;-43
2022/11/24 05:58:39;;;;;;;54.73;50.13;;;;;;;6.09;100.00;100511.53;5014899;28;20481;-44
2022/11/24 06:01:07;;;;;;;51.90;47.60;;;;;;;6.10;100.00;100523.78;5034139;23;20547;-45
2022/11/24 06:03:35;;;;;;;53.00;48.30;;;;;;;6.12;100.00;100531.56;4986603;28;20462;-45
2022/11/24 06:06:03;;;;;;;53.47;48.70;;;;;;;6.14;100.00;100532.19;4995194;28;20437;-46
2022/11/24 06:08:31;;;;;;;53.77;48.80;;;;;;;6.14;100.00;100532.19;4995379;28;20434;-46
2022/11/24 06:11:15;;;;;;;54.03;49.63;;;;;;;6.15;100.00;100525.09;4995073;28;20454;-47
2022/11/24 06:13:44;;;;;;;54.67;50.03;;;;;;;6.17;100.00;100538.97;4994617;28;20462;-46
2022/11/24 06:16:13;;;;;;;54.63;50.03;;;;;;;6.15;100.00;100540.97;4995165;28;20777;-46
2022/11/24 06:18:40;;;;;;;54.20;49.50;;;;;;;6.17;100.00;100534.50;4994898;28;20581;-45
2022/11/24 06:21:08;;;;;;;52.93;48.37;;;;;;;6.18;100.00;100533.53;4994761;28;21049;-45
2022/11/24 06:23:39;;;;;;;54.20;49.50;;;;;;;6.18;100.00;100536.16;4994406;28;20474;-45
2022/11/24 06:26:08;;;;;;;56.00;50.50;;;;;;;6.21;100.00;100550.88;4994993;28;20456;-47
2022/11/24 06:28:35;;;;;;;54.73;50.23;;;;;;;6.21;100.00;100545.59;4994878;28;20506;-46
2022/11/24 06:31:05;;;;;;;54.37;49.83;;;;;;;6.25;100.00;100549.50;4993957;28;20453;-47
2022/11/24 06:33:33;;;;;;;55.40;50.10;;;;;;;6.25;100.00;100555.63;4994317;28;20485;-44
2022/11/24 06:36:02;;;;;;;54.33;49.50;;;;;;;6.27;100.00;100560.78;4994764;28;20430;-47
2022/11/24 06:38:30;;;;;;;52.90;48.20;;;;;;;6.28;100.00;100559.75;4994667;28;20847;-47
2022/11/24 06:41:00;;;;;;;52.47;47.93;;;;;;;6.28;100.00;100559.75;4994477;28;20453;-46
2022/11/24 06:43:29;;;;;;;54.87;49.57;;;;;;;6.29;100.00;100559.59;4993966;28;20481;-44
2022/11/24 06:45:57;;;;;;;52.50;47.80;;;;;;;6.30;100.00;100566.53;4994543;28;20939;-44
2022/11/24 06:48:26;;;;;;;56.23;50.53;;;;;;;6.28;100.00;100560.59;4994499;28;20438;-44
2022/11/24 06:50:54;;;;;;;53.30;48.37;;;;;;;6.29;100.00;100564.91;4994179;28;20492;-47
2022/11/24 06:53:21;;;;;;;54.43;49.07;;;;;;;6.30;100.00;100573.69;4982124;28;20506;-47
2022/11/24 06:55:49;;;;;;;55.67;50.47;;;;;;;6.30;100.00;100574.47;4993584;28;20440;-45
2022/11/24 06:58:18;;;;;;;53.90;48.53;;;;;;;6.31;100.00;100585.91;4994071;28;20454;-48
2022/11/24 07:00:46;;;;;;;54.20;49.10;;;;;;;6.32;100.00;100574.31;4994022;28;20488;-43
2022/11/24 07:03:16;;;;;;;56.23;50.53;;;;;;;6.33;100.00;100578.63;4993856;28;20528;-47
2022/11/24 07:05:43;;;;;;;56.70;49.67;;;;;;;6.35;100.00;100582.75;4994364;28;20808;-48
2022/11/24 07:08:11;;;;;;;53.97;48.80;;;;;;;6.33;100.00;100576.78;4994249;28;20438;-46
2022/11/24 07:10:44;;;;;;;54.47;49.60;;;;;;;6.36;100.00;100578.28;4993795;28;20924;-47
2022/11/24 07:13:12;;;;;;;57.03;51.90;;;;;;;6.36;100.00;100580.94;4993549;28;20517;-47
2022/11/24 07:15:41;;;;;;;57.70;52.30;;;;;;;6.37;100.00;100593.16;4994219;28;20457;-49
2022/11/24 07:18:09;;;;;;;57.13;51.43;;;;;;;6.38;100.00;100598.28;4994080;28;20434;-48
2022/11/24 07:20:37;;;;;;;55.33;50.00;;;;;;;6.40;100.00;100600.75;4993597;28;20990;-47
2022/11/24 07:23:05;;;;;;;54.87;49.37;;;;;;;6.41;100.00;100597.13;4993222;28;20855;-47
2022/11/24 07:25:33;;;;;;;55.67;50.57;;;;;;;6.43;100.00;100605.72;4993928;28;20947;-46
2022/11/24 07:28:01;;;;;;;56.63;51.20;;;;;;;6.43;100.00;100614.47;4993888;28;20488;-47
2022/11/24 07:30:28;;;;;;;53.73;48.83;;;;;;;6.44;100.00;100613.50;4993804;28;20481;-48
2022/11/24 07:33:00;;;;;;;56.13;50.03;;;;;;;6.46;100.00;100615.94;4992952;28;20481;-47
2022/11/24 07:35:28;;;;;;;53.97;49.30;;;;;;;6.48;100.00;100619.28;4993549;28;20437;-47
2022/11/24 07:37:57;;;;;;;56.53;50.90;;;;;;;6.48;100.00;100620.06;4993728;28;20465;-47
2022/11/24 07:40:26;;;;;;;56.50;51.17;;;;;;;6.52;100.00;100623.22;4993511;28;20531;-49
2022/11/24 07:42:54;;;;;;;55.30;50.47;;;;;;;6.55;100.00;100638.75;4992701;28;20470;-48
2022/11/24 07:45:21;;;;;;;57.13;52.33;;;;;;;6.54;100.00;100637.13;4993479;28;20438;-47
2022/11/24 07:47:49;;;;;;;57.17;51.83;;;;;;;6.55;100.00;100644.06;4993481;28;20430;-46
2022/11/24 07:50:18;;;;;;;56.93;51.20;;;;;;;6.56;100.00;100651.84;4983962;28;20446;-43
2022/11/24 07:52:46;;;;;;;54.37;49.60;;;;;;;6.58;100.00;100660.44;4973933;28;20463;-47
2022/11/24 07:55:14;;;;;;;58.23;52.47;;;;;;;6.59;100.00;100658.63;4979300;28;20486;-49
2022/11/24 07:57:42;;;;;;;54.60;49.73;;;;;;;6.60;100.00;100655.78;4974037;28;20443;-48
2022/11/24 08:00:10;;;;;;;55.30;49.60;;;;;;;6.60;100.00;100655.00;4973812;28;20486;-46
2022/11/24 08:02:38;;;;;;;55.50;50.80;;;;;;;6.62;100.00;100663.56;4972747;28;20466;-46
2022/11/24 08:05:07;;;;;;;55.47;50.77;;;;;;;6.63;100.00;100666.03;4973864;28;20441;-46
2022/11/24 08:07:36;;;;;;;54.63;49.87;;;;;;;6.66;100.00;100673.66;4973566;28;20446;-46
2022/11/24 08:10:04;;;;;;;56.60;51.00;;;;;;;6.69;100.00;100669.81;4973484;28;20458;-47
2022/11/24 08:12:32;;;;;;;54.77;49.70;;;;;;;6.74;100.00;100675.44;4972824;28;20463;-47
2022/11/24 08:15:00;;;;;;;54.93;49.70;;;;;;;6.82;100.00;100679.88;4973489;28;20782;-46
2022/11/24 08:17:33;;;;;;;54.47;49.37;;;;;;;6.88;100.00;100672.06;4973756;28;20446;-48
2022/11/24 08:20:00;;;;;;;53.97;49.27;;;;;;;6.92;100.00;100680.47;4973533;28;20482;-48
2022/11/24 08:22:29;;;;;;;53.50;49.00;;;;;;;6.94;100.00;100674.00;4972738;28;20478;-46
2022/11/24 08:24:57;;;;;;;52.93;48.60;;;;;;;6.96;100.00;100681.78;4973650;28;20430;-48
2022/11/24 08:27:25;;;;;;;53.13;48.67;;;;;;;7.00;100.00;100668.00;4973462;28;20505;-47
2022/11/24 08:29:53;;;;;;;53.30;48.83;;;;;;;7.06;100.00;100677.06;4973324;28;20435;-47
2022/11/24 08:32:20;;;;;;;55.47;50.30;;;;;;;7.10;100.00;100678.38;4972926;28;20474;-45
2022/11/24 08:34:49;;;;;;;54.80;50.03;;;;;;;7.14;100.00;100683.16;4973502;28;20529;-45
2022/11/24 08:37:17;;;;;;;53.73;49.23;;;;;;;7.15;100.00;100686.63;4973404;28;20443;-44
2022/11/24 08:39:45;;;;;;;54.67;49.50;;;;;;;7.17;100.00;100690.75;4973156;28;20471;-46
2022/11/24 08:42:14;;;;;;;55.27;50.47;;;;;;;7.15;100.00;100684.81;4972445;28;20496;-46
2022/11/24 08:44:42;;;;;;;55.47;50.60;;;;;;;7.12;100.00;100687.81;4973043;28;20439;-44
2022/11/24 08:47:09;;;;;;;54.33;50.13;;;;;;;7.14;100.00;100696.41;4973349;28;20497;-47
2022/11/24 08:49:37;;;;;;;54.10;50.00;;;;;;;7.15;100.00;100698.06;4973444;28;20431;-45
2022/11/24 08:52:05;;;;;;;53.97;49.50;;;;;;;7.14;100.00;100701.72;4974713;28;20458;-46
2022/11/24 08:54:32;;;;;;;53.77;49.20;;;;;;;7.15;100.00;100713.16;4983933;28;20440;-47
2022/11/24 08:57:00;;;;;;;57.10;51.30;;;;;;;7.15;100.00;100710.50;4992470;28;20437;-46
2022/11/24 08:59:29;;;;;;;55.00;49.70;;;;;;;7.18;100.00;100713.63;4992619;28;20756;-46
2022/11/24 09:01:57;;;;;;;54.20;49.27;;;;;;;7.20;100.00;100722.22;4991764;28;20879;-44
2022/11/24 09:04:25;;;;;;;54.33;49.53;;;;;;;7.23;100.00;100729.84;4992362;28;20445;-46
2022/11/24 09:06:53;;;;;;;53.60;49.00;;;;;;;7.29;100.00;100736.25;4992567;28;20580;-46
2022/11/24 09:09:21;;;;;;;54.90;50.40;;;;;;;7.33;100.00;100723.47;4992195;28;20430;-44
2022/11/24 09:11:48;;;;;;;54.57;49.90;;;;;;;7.35;100.00;100734.75;4991626;28;20872;-45
2022/11/24 09:14:16;;;;;;;54.10;49.30;;;;;;;7.36;100.00;100729.28;4992589;28;20808;-45
2022/11/24 09:16:45;;;;;;;54.03;49.17;;;;;;;7.42;100.00;100736.53;4992271;28;20434;-48
2022/11/24 09:19:13;;;;;;;52.93;48.67;;;;;;;7.47;100.00;100726.19;4992413;28;20441;-44
2022/11/24 09:21:40;;;;;;;54.67;49.77;;;;;;;7.50;100.00;100725.84;4991471;28;20693;-44
2022/11/24 09:24:09;;;;;;;54.00;49.50;;;;;;;7.54;100.00;100728.97;4992130;28;20438;-46
2022/11/24 09:26:38;;;;;;;53.03;48.73;;;;;;;7.61;100.00;100727.28;4992437;28;20438;-45
2022/11/24 09:29:13;;;;;;;55.00;50.17;;;;;;;7.68;100.00;100726.38;4992347;28;20532;-47
2022/11/24 09:31:41;;;;;;;59.50;53.67;;;;;;;7.69;100.00;100732.50;4991523;28;20445;-44
2022/11/24 09:34:14;;;;;;;69.33;62.53;;;;;;;7.73;100.00;100732.00;4992000;28;20437;-46
2022/11/24 09:36:42;;;;;;;66.13;59.60;;;;;;;7.78;100.00;100734.09;4992080;28;20426;-43
2022/11/24 09:39:10;;;;;;;58.17;53.50;;;;;;;7.78;100.00;100753.50;4992156;28;20434;-45
2022/11/24 09:42:12;;;;;;;55.27;51.20;;;;;;;7.83;100.00;100763.59;4991579;28;20535;-46
2022/11/24 09:45:02;;;;;;;55.13;50.23;;;;;;;7.85;100.00;100758.09;4991853;28;20446;-46
2022/11/24 09:47:39;;;;;;;54.57;49.43;;;;;;;7.88;100.00;100758.59;4992176;28;20522;-45
2022/11/24 09:50:15;;;;;;;53.43;49.03;;;;;;;7.90;100.00;100758.38;4992548;28;20760;-46
2022/11/24 09:52:51;;;;;;;54.13;49.17;;;;;;;7.89;100.00;100757.56;4987041;28;21005;-47
2022/11/24 09:55:30;;;;;;;53.27;49.17;;;;;;;7.91;100.00;100765.34;4987045;28;20437;-51
2022/11/24 09:58:09;;;;;;;53.50;48.43;;;;;;;7.91;100.00;100760.88;4992102;28;20496;-46
2022/11/24 10:00:37;;;;;;;52.80;48.40;;;;;;;7.91;100.00;100773.31;4991910;28;20477;-48
2022/11/24 10:03:05;;;;;;;55.73;51.20;;;;;;;7.91;100.00;100765.34;4991105;28;20473;-46
2022/11/24 10:05:36;;;;;;;56.20;51.50;;;;;;;7.93;100.00;100766.81;4992657;28;20494;-47
2022/11/24 10:08:16;;;;;;;53.63;49.23;;;;;;;7.94;100.00;100770.31;4996000;28;20492;-45
2022/11/24 10:10:51;;;;;;;53.47;49.23;;;;;;;7.95;100.00;100783.41;4995092;28;20487;-47
2022/11/24 10:13:33;;;;;;;53.43;49.27;;;;;;;7.98;100.00;100787.53;4994629;28;20991;-46
2022/11/24 10:16:09;;;;;;;54.57;49.67;;;;;;;7.98;100.00;100783.03;4995175;28;20461;-44
2022/11/24 10:18:59;;;;;;;52.93;48.40;;;;;;;7.98;100.00;100791.00;4995255;28;20942;-47
2022/11/24 10:21:47;;;;;;;54.73;50.20;;;;;;;8.00;100.00;100797.00;4994532;28;21013;-46
2022/11/24 10:24:47;;;;;;;53.57;48.57;;;;;;;8.01;100.00;100792.47;4994785;28;20438;-45
2022/11/24 10:27:18;;;;;;;54.40;49.13;;;;;;;8.06;100.00;100788.31;4970195;28;20446;-48
2022/11/24 10:29:49;;;;;;;52.73;48.13;;;;;;;8.07;100.00;100794.41;4994819;28;20928;-46
2022/11/24 10:32:19;;;;;;;54.13;49.13;;;;;;;8.12;100.00;100787.56;4993969;28;20477;-45
2022/11/24 10:34:49;;;;;;;54.67;50.13;;;;;;;8.14;100.00;100798.03;4994687;28;20445;-43
2022/11/24 10:37:25;;;;;;;53.50;48.80;;;;;;;8.16;100.00;100790.69;4994802;28;20851;-45
2022/11/24 10:40:00;;;;;;;54.03;49.03;;;;;;;8.21;100.00;100794.44;4994884;28;20456;-47
2022/11/24 10:42:30;;;;;;;50.73;46.63;;;;;;;8.27;100.00;100792.94;4994021;28;20524;-47
2022/11/24 10:45:02;;;;;;;59.30;52.20;;;;;;;8.28;100.00;100798.09;4994701;28;20935;-43
2022/11/24 10:47:30;;;;;;;53.53;48.57;;;;;;;8.30;100.00;100796.06;4994524;28;20438;-46
2022/11/24 10:50:02;;;;;;;57.97;52.67;;;;;;;8.31;100.00;100803.03;4994746;28;20438;-45
2022/11/24 10:52:36;;;;;;;53.47;49.10;;;;;;;8.33;100.00;100806.34;4991325;28;20528;-47
2022/11/24 10:55:05;;;;;;;54.20;49.30;;;;;;;8.34;100.00;100794.69;4980895;28;20484;-47
2022/11/24 10:57:36;;;;;;;54.87;49.67;;;;;;;8.37;100.00;100800.66;4994421;28;20446;-48
2022/11/24 11:00:30;;;;;;;50.93;46.70;;;;;;;8.39;100.00;100798.66;4994299;28;20492;-45
2022/11/24 11:03:11;;;;;;;51.37;47.23;;;;;;;8.39;100.00;100809.28;4991432;28;20986;-48
2022/11/24 11:05:43;;;;;;;51.50;46.93;;;;;;;8.44;100.00;100804.25;4994512;28;20425;-47
2022/11/24 11:08:22;;;;;;;50.93;46.57;;;;;;;8.53;100.00;100809.31;4994252;28;20441;-47
2022/11/24 11:10:51;;;;;;;54.80;50.10;;;;;;;8.54;100.00;100812.81;4993920;28;20425;-50
2022/11/24 11:13:24;;;;;;;52.80;48.00;;;;;;;8.57;100.00;100812.44;4993647;28;20458;-45
2022/11/24 11:15:52;;;;;;;52.30;47.80;;;;;;;8.58;100.00;100817.56;4993891;28;20422;-47
2022/11/24 11:18:21;;;;;;;53.03;48.50;;;;;;;8.61;100.00;100824.34;4994412;28;20437;-46
2022/11/24 11:20:51;;;;;;;53.00;48.50;;;;;;;8.59;100.00;100823.69;4993507;28;20478;-45
2022/11/24 11:23:26;;;;;;;51.57;47.33;;;;;;;8.64;100.00;100831.94;4993386;28;20465;-46
2022/11/24 11:26:19;;;;;;;52.17;47.73;;;;;;;8.64;100.00;100830.13;4994049;28;20461;-47